International Virtual Aviation Organisation

Eastern Europe and Northern Asia MCD

 
UHWW 101100Z 13003MPS 9999 FEW010 05/02 Q1029 R25L/0///70 NOSIG RMK QFE771
QNH:(hPa/inHg/mmHg)1029 / 30.39 / 772
QFE:(hPa/inHg/mmHg)1027 / 30.32 / 770
Temperature5
Dew Point2
Visibility> 10000
Weather
Cloud CoverFEW (1000);
Transition Height1800 m./6000 ft.
Transition LevelFL70
SQUAWK